Downside Tasuki Gap

The Downside Tasuki Gap is a three day, bearish continuation pattern that happens with a clear downtrend. It starts with a long, black body followed by another black body that has gapped below the first one. The third day is white and opens within the body of the second day, then closes in the gap between the first two days, but does not fully close the gap. The brother of the Downside Tasuki Gap is the bullish Upside Tasuki Gap.

Technicals
Stock Name Action ISIN Quality Score Technical Score Stock Classification Text Default Exchange Current Price Rs Day Change % Week Change % 5Day SMA Rs 5Day EMA Rs 10Day SMA Rs Candlestick Strength [Bullish minus Bearish] Prev Day Close Rs Last End of Day
Oracle Financial Services Software Ltd. Detail INE881D01027 58 27 Falling Comet NSE 3217.45 4.09 -0.41 3190.2 3218.41 3335.2 0 3091.1 2022-05-20
Linde India Ltd. Detail INE473A01011 46 51 Expensive Performer NSE 3093.3 3.12 -2.32 3086.34 3109 3203 -1 2999.75 2022-05-20
Shaily Engineering Plastics Ltd. Detail INE151G01010 48 13 Expensive Underperformer NSE 1760.2 0.36 8.5 1765.03 1762.94 1780.48 -1 1753.9 2022-05-20
Vindhya Telelinks Ltd. Detail INE707A01012 75 33 Value Stock, Under Radar NSE 984.3 2.29 2.89 983.2 978.68 966.8 -1 962.25 2022-05-20
Voltas Ltd. Detail INE226A01021 67 36 Expensive Performer NSE 975.15 3.14 4.7 969.14 971.1 973.97 -1 945.45 2022-05-20
LIC MF Exchange Traded Fund - Sensex Detail INF767K01OT5 NA 32 NA NSE 581.04 2.26 1.87 576.58 577.48 577.98 -1 568.2 2022-05-20
Bajaj Steel Industries Ltd. Detail INE704G01024 89 23 Value Stock, Under Radar BSE 579.95 3.68 1.1 576.48 576.83 575.42 -1 559.35 2022-05-20
Uflex Ltd. Detail INE516A01017 84 49 Strong Performer, Under Radar NSE 579.2 2.75 3.27 576.92 576.61 578.52 -1 563.7 2022-05-20
Agarwal Industrial Corporation Ltd. Detail INE204E01012 40 54 Mid-range Performer NSE 574.55 5.41 2.56 580.59 576.07 571.23 -1 545.05 2022-05-20
Everest Industries Ltd. Detail INE295A01018 67 56 Strong Performer, Under Radar NSE 570.6 1.77 4.5 565.43 566.28 561.02 -1 560.65 2022-05-20
GNA Axles Ltd. Detail INE934S01014 60 27 Falling Comet NSE 507.35 1.74 1.27 503.09 503.51 499.77 -1 498.65 2022-05-20
Dabur India Ltd. Detail INE016A01026 60 30 Falling Comet NSE 503.35 2.29 0.51 500.78 501.56 501.73 -1 492.1 2022-05-20
Can Fin Homes Ltd. Detail INE477A01020 35 28 Slowing Down Stock NSE 471.6 4.19 -4.86 475.57 475.18 485.12 -1 452.65 2022-05-20
RSWM Ltd. Detail INE611A01016 80 43 Strong Performer, Under Radar NSE 436.55 2.61 3.04 434.86 437.69 452.48 -1 425.45 2022-05-20
Torrent Power Ltd. Detail INE813H01021 66 34 Falling Comet NSE 429.65 2.35 -0.46 430.77 432.56 443.17 -1 419.8 2022-05-20
Balrampur Chini Mills Ltd. Detail INE119A01028 87 57 Mid-range Performer NSE 423.2 3.97 7.74 418.14 416.05 406.64 0 407.05 2022-05-20
Jubilant Pharmova Ltd. Detail INE700A01033 80 29 Value Stock, Under Radar NSE 408 2.08 2.36 406.78 406.8 407.4 -1 399.7 2022-05-20
BF Utilities Ltd. Detail INE243D01012 49 30 Slowing Down Stock NSE 331.8 3.96 6.19 328.13 328.14 326.38 -1 319.15 2022-05-20
Sterling and Wilson Renewable Energy Ltd. Detail INE00M201021 33 33 Weak Stock NSE 325.55 3.76 0.31 324.59 324.58 326.62 -1 313.75 2022-05-20
RateGain Travel Technologies Ltd. Detail INE0CLI01024 NA 17 NA NSE 310.7 2.8 1.07 316.04 312.44 315.29 -1 302.25 2022-05-20
Diamines & Chemicals Ltd. Detail INE591D01014 42 66 Turnaround Potential BSE 307.1 2.32 5.37 305.42 303.47 297.96 -2 300.15 2022-05-20
Asahi Songwon Colors Ltd. Detail INE228I01012 55 47 Mid-range Performer NSE 304.2 5.01 5.31 300.7 299.49 295.62 -1 289.7 2022-05-20
Somany Home Innovation Ltd. Detail INE05AN01011 98 25 Value Stock, Under Radar NSE 298.65 2.26 -0.28 298.77 298.9 298.64 -1 292.05 2022-05-20
Subros Ltd. Detail INE287B01021 58 33 Falling Comet NSE 298.35 1.08 -1.5 298.15 299.18 302.66 -1 295.15 2022-05-20
Sangam (India) Ltd. Detail INE495C01010 75 46 Strong Performer, Under Radar NSE 280.7 1.23 -4.17 283.66 284.46 290.68 -1 277.3 2022-05-20
Kotak PSU Bank Exchange Traded Fund Detail INF373I01023 NA 41 NA NSE 243.23 3.15 3.37 241.98 242.1 243.5 0 235.81 2022-05-20
Jayant Agro Organics Ltd. Detail INE785A01026 66 48 Strong Performer, Under Radar NSE 239.35 2.79 2.62 236.22 237.12 233.82 -1 232.85 2022-05-20
PPAP Automotive Ltd. Detail INE095I01015 37 39 Mid-range Performer NSE 200.45 4.02 11.61 194.82 195.83 191.77 -1 192.7 2022-05-20
Black Box Ltd. Detail INE676A01027 44 51 Mid-range Performer NSE 169 6.12 1.2 171.33 166.46 160.68 -1 159.25 2022-05-20
Zuari Agro Chemicals Ltd. Detail INE840M01016 37 56 Mid-range Performer NSE 165.7 3.76 2.76 166.48 165.08 163.67 -1 159.7 2022-05-20
Zuari Global Ltd. Detail INE217A01012 41 48 Mid-range Performer NSE 162.55 2.62 3.57 162.96 161.77 159.45 -1 158.4 2022-05-20
V2 Retail Ltd. Detail INE945H01013 15 33 Weak Stock NSE 131.85 4.85 7.54 129.73 130.09 130.7 -1 125.75 2022-05-20
TIL Ltd. Detail INE806C01018 24 37 Momentum Trap NSE 112 3.32 2.75 111.43 110.66 108.81 -1 108.4 2022-05-20
Castrol India Ltd. Detail INE172A01027 73 49 Mid-range Performer NSE 107.85 2.32 6.47 107.04 106.61 104.94 -1 105.4 2022-05-20
Arrow Greentech Ltd. Detail INE570D01018 67 30 Falling Comet NSE 102.7 1.58 4.53 103.74 102.67 100.93 -1 101.1 2022-05-20
IIFL Securities Ltd. Detail INE489L01022 41 29 Falling Comet NSE 79 2.33 3.47 78.71 78.46 77.54 -1 77.2 2022-05-20
Spencer's Retail Ltd. Detail INE020801028 28 27 Weak Stock NSE 77.1 3.35 -2.22 77.45 77.09 77.2 -1 74.6 2022-05-20
Aarnav Fashions Ltd. Detail INE750R01016 44 35 Expensive Performer BSE 53.8 2.48 10.47 54.89 53.56 51.29 -1 52.5 2022-05-20
Orient Paper & Industries Ltd. Detail INE592A01026 15 41 Momentum Trap NSE 28.85 3.04 6.85 28.55 28.49 28.02 -1 28 2022-05-20
Mirae Asset ESG Sector Leaders ETF Detail INF769K01GS9 NA 35 NA NSE 27.4 2.51 2.54 27.2 27.2 27.18 0 26.73 2022-05-20
ARSS Infrastructure Projects Ltd. Detail INE267I01010 21 43 Momentum Trap NSE 26.3 4.57 6.48 25.94 25.75 25.04 -1 25.15 2022-05-20
Libas Consumer Products Ltd. Detail INE908V01012 NA 30 NA NSE 24.7 4 -1.59 24.67 24.43 24.05 -1 23.75 2022-05-20
Andrew Yule & Company Ltd. Detail INE449C01025 57 30 Falling Comet NSE 23.75 3.94 2.59 23.48 23.46 23.23 -1 22.85 2022-05-20
Swiss Military Consumer Goods Ltd. Detail INE010C01025 62 58 Expensive Performer BSE 23.6 2.16 7.76 23.42 23.4 23.16 -1 23.1 2022-05-20
PC Jeweller Ltd. Detail INE785M01013 53 31 Slowing Down Stock NSE 21.05 1.45 3.69 20.99 20.91 20.58 -1 20.75 2022-05-20
Yaan Enterprises Ltd. Detail INE969E01010 NA 39 NA BSE 19.3 1.58 1.58 19.08 19.2 19.11 -1 19 2022-05-20
Jaiprakash Associates Ltd. Detail INE455F01025 32 35 Await Turnaround NSE 8.55 3.64 6.21 8.48 8.44 8.31 -1 8.25 2022-05-20
Suvidhaa Infoserve Ltd. Detail INE018401013 NA 29 NA NSE 7.25 2.11 6.62 7.4 7.26 7.15 -1 7.1 2022-05-20